createdAt,value
2019-05-11T00:01:52.491Z,10.38
2019-05-11T00:04:24.389Z,10.41
2019-05-11T00:06:57.080Z,10.45
2019-05-11T00:09:29.238Z,10.48
2019-05-11T00:12:00.907Z,10.48
2019-05-11T00:14:32.961Z,10.51
2019-05-11T00:17:04.507Z,10.54
2019-05-11T00:19:36.415Z,10.56
2019-05-11T00:22:08.126Z,10.61
2019-05-11T00:24:40.045Z,10.61
2019-05-11T00:27:11.844Z,10.63
2019-05-11T00:29:43.715Z,10.65
2019-05-11T00:32:15.713Z,10.68
2019-05-11T00:34:47.556Z,10.69
2019-05-11T00:37:19.497Z,10.69
2019-05-11T00:39:51.244Z,10.70
2019-05-11T00:42:23.244Z,10.70
2019-05-11T00:44:55.210Z,10.68
2019-05-11T00:47:27.063Z,10.65
2019-05-11T00:49:58.795Z,10.62
2019-05-11T00:52:30.960Z,10.57
2019-05-11T00:55:02.573Z,10.50
2019-05-11T00:57:34.518Z,10.44
2019-05-11T01:00:09.728Z,9.58
2019-05-11T01:02:41.324Z,10.37
2019-05-11T01:05:13.248Z,10.37
2019-05-11T01:07:45.294Z,10.36
2019-05-11T01:10:28.732Z,10.34
2019-05-11T01:12:50.915Z,10.36
2019-05-11T01:15:23.190Z,10.37
2019-05-11T01:17:55.495Z,10.41
2019-05-11T01:20:27.257Z,10.42
2019-05-11T01:22:59.612Z,10.45
2019-05-11T01:25:31.606Z,10.45
2019-05-11T01:28:03.653Z,10.47
2019-05-11T01:30:38.541Z,10.50
2019-05-11T01:33:08.877Z,10.52
2019-05-11T01:35:40.464Z,10.51
2019-05-11T01:38:12.428Z,10.48
2019-05-11T01:40:57.750Z,10.47
2019-05-11T01:43:17.375Z,10.48
2019-05-11T01:45:49.661Z,10.47
2019-05-11T01:48:21.280Z,10.49
2019-05-11T01:50:53.306Z,10.47
2019-05-11T01:53:25.057Z,10.48
2019-05-11T01:55:57.286Z,10.48
2019-05-11T01:58:28.955Z,10.47
2019-05-11T02:01:00.833Z,10.50
2019-05-11T02:03:32.669Z,10.54
2019-05-11T02:06:04.732Z,10.55
2019-05-11T02:08:36.437Z,10.55
2019-05-11T02:11:15.954Z,10.50
2019-05-11T02:13:42.058Z,10.43
2019-05-11T02:16:13.856Z,10.44
2019-05-11T02:18:45.603Z,10.40
2019-05-11T02:21:17.656Z,10.38
2019-05-11T02:23:49.317Z,10.37
2019-05-11T02:26:21.592Z,10.42
2019-05-11T02:28:53.415Z,10.54
2019-05-11T02:31:25.281Z,10.60
2019-05-11T02:33:58.172Z,10.69
2019-05-11T02:36:30.165Z,10.77
2019-05-11T02:39:02.157Z,10.85
2019-05-11T02:41:36.838Z,10.89
2019-05-11T02:44:07.419Z,10.91
2019-05-11T02:46:39.444Z,10.97
2019-05-11T02:49:11.080Z,11.08
2019-05-11T02:51:43.892Z,11.24
2019-05-11T02:54:15.809Z,11.64
2019-05-11T02:56:47.694Z,12.86
2019-05-11T02:59:19.546Z,14.55
2019-05-11T03:01:51.221Z,16.03
2019-05-11T03:04:22.950Z,17.55
2019-05-11T03:06:54.950Z,18.72
2019-05-11T03:09:26.698Z,20.03
2019-05-11T03:11:58.855Z,20.92
2019-05-11T03:14:30.594Z,21.62
2019-05-11T03:17:09.975Z,22.36
2019-05-11T03:19:41.554Z,23.10
2019-05-11T03:22:13.502Z,23.85
2019-05-11T03:24:45.614Z,24.45
2019-05-11T03:27:17.711Z,25.28
2019-05-11T03:29:49.468Z,25.60
2019-05-11T03:32:21.499Z,26.27
2019-05-11T03:34:53.097Z,27.00
2019-05-11T03:37:24.949Z,28.05
2019-05-11T03:39:56.881Z,28.74
2019-05-11T03:42:28.840Z,29.28
2019-05-11T03:45:00.491Z,29.81
2019-05-11T03:47:32.391Z,30.06
2019-05-11T03:50:03.630Z,29.67
2019-05-11T03:52:35.291Z,30.03
2019-05-11T03:55:06.433Z,30.52
2019-05-11T03:57:38.572Z,30.90
2019-05-11T04:00:11.253Z,32.09
2019-05-11T04:02:43.218Z,33.11
2019-05-11T04:05:14.858Z,33.49
2019-05-11T04:07:46.034Z,34.04
2019-05-11T04:10:17.638Z,34.54
2019-05-11T04:12:49.859Z,35.36
2019-05-11T04:15:21.834Z,35.87
2019-05-11T04:17:53.969Z,36.29
2019-05-11T04:20:26.119Z,36.53
2019-05-11T04:22:58.426Z,36.43
2019-05-11T04:25:30.148Z,36.76
2019-05-11T04:28:01.928Z,37.08
2019-05-11T04:30:33.814Z,37.63
2019-05-11T04:33:05.527Z,37.69
2019-05-11T04:35:37.721Z,37.62
2019-05-11T04:38:09.646Z,37.69
2019-05-11T04:40:41.515Z,37.84
2019-05-11T04:43:12.902Z,37.62
2019-05-11T04:45:44.142Z,37.26
2019-05-11T04:48:15.566Z,36.36
2019-05-11T04:50:47.422Z,35.64
2019-05-11T04:53:19.298Z,35.16
2019-05-11T04:55:50.557Z,34.76
2019-05-11T04:58:21.873Z,34.42
2019-05-11T05:00:55.464Z,34.89
2019-05-11T05:03:40.326Z,34.97
2019-05-11T05:06:20.980Z,35.62
2019-05-11T05:08:34.681Z,36.64
2019-05-11T05:11:06.580Z,37.66
2019-05-11T05:13:38.173Z,39.35
2019-05-11T05:16:09.232Z,41.02
2019-05-11T05:18:41.071Z,41.78
2019-05-11T05:21:13.362Z,42.11
2019-05-11T05:23:45.236Z,42.83
2019-05-11T05:26:16.953Z,42.68
2019-05-11T05:28:48.711Z,41.76
2019-05-11T05:31:20.264Z,40.51
2019-05-11T05:33:52.330Z,37.85
2019-05-11T05:36:23.793Z,35.04
2019-05-11T05:38:54.751Z,33.40
2019-05-11T05:41:25.997Z,31.91
2019-05-11T05:43:57.427Z,31.94
2019-05-11T05:46:28.786Z,32.09
2019-05-11T05:49:00.619Z,32.83
2019-05-11T05:51:32.685Z,32.45
2019-05-11T05:54:04.374Z,31.88
2019-05-11T05:56:35.987Z,31.66
2019-05-11T05:59:07.287Z,31.34
2019-05-11T06:01:38.615Z,30.90
2019-05-11T06:04:10.776Z,31.17
2019-05-11T06:06:42.419Z,31.06
2019-05-11T06:09:14.302Z,30.42
2019-05-11T06:11:45.931Z,29.71
2019-05-11T06:14:17.527Z,30.90
2019-05-11T06:16:49.127Z,32.46
2019-05-11T06:19:20.533Z,32.73
2019-05-11T06:21:52.167Z,32.77
2019-05-11T06:24:24.306Z,33.85
2019-05-11T06:26:55.272Z,34.73
2019-05-11T06:29:26.744Z,35.17
2019-05-11T06:31:58.453Z,35.33
2019-05-11T06:34:30.241Z,35.21
2019-05-11T06:37:01.773Z,34.73
2019-05-11T06:39:33.619Z,33.99
2019-05-11T06:42:05.223Z,33.95
2019-05-11T06:44:36.887Z,33.54
2019-05-11T06:47:07.810Z,32.59
2019-05-11T06:49:40.444Z,31.78
2019-05-11T06:52:12.109Z,31.27
2019-05-11T06:54:43.958Z,31.43
2019-05-11T06:57:14.933Z,31.92
2019-05-11T06:59:46.458Z,31.52
2019-05-11T07:02:18.016Z,34.18
2019-05-11T07:04:49.287Z,36.88
2019-05-11T07:07:20.637Z,38.41
2019-05-11T07:09:52.785Z,39.09
2019-05-11T07:12:27.515Z,39.08
2019-05-11T07:14:58.079Z,38.93
2019-05-11T07:17:29.790Z,38.20
2019-05-11T07:20:01.577Z,38.46
2019-05-11T07:22:34.035Z,36.54
2019-05-11T07:25:07.812Z,32.40
2019-05-11T07:27:39.687Z,31.07
2019-05-11T07:30:11.945Z,30.94
2019-05-11T07:32:44.971Z,33.40
2019-05-11T07:35:18.668Z,35.09
2019-05-11T07:37:49.669Z,35.03
2019-05-11T07:40:22.436Z,34.70
2019-05-11T07:42:54.597Z,32.55
2019-05-11T07:45:28.338Z,29.42
2019-05-11T07:47:59.594Z,27.11
2019-05-11T07:50:31.513Z,25.83
2019-05-11T07:53:04.126Z,25.01
2019-05-11T07:55:38.565Z,24.56
2019-05-11T07:58:10.274Z,24.34
2019-05-11T08:00:41.782Z,24.43
2019-05-11T08:03:13.233Z,24.42
2019-05-11T08:05:45.094Z,27.30
2019-05-11T08:08:18.089Z,30.52
2019-05-11T08:10:49.989Z,30.52
2019-05-11T08:13:21.882Z,28.42
2019-05-11T08:15:53.997Z,27.49
2019-05-11T08:18:25.051Z,27.13
2019-05-11T08:20:58.245Z,27.16
2019-05-11T08:23:30.032Z,27.69
2019-05-11T08:26:02.157Z,27.80
2019-05-11T08:28:34.068Z,27.83
2019-05-11T08:31:08.091Z,27.67
2019-05-11T08:33:39.592Z,27.84
2019-05-11T08:36:11.606Z,28.06
2019-05-11T08:38:43.714Z,27.65
2019-05-11T08:41:15.394Z,26.94
2019-05-11T08:43:48.063Z,25.58
2019-05-11T08:46:19.865Z,24.08
2019-05-11T08:48:51.325Z,24.49
2019-05-11T08:51:22.643Z,24.83
2019-05-11T08:53:55.374Z,24.12
2019-05-11T08:56:28.736Z,24.65
2019-05-11T08:59:00.200Z,25.31
2019-05-11T09:01:32.263Z,26.48
2019-05-11T09:04:03.785Z,25.36
2019-05-11T09:06:37.624Z,24.93
2019-05-11T09:09:13.167Z,24.97
2019-05-11T09:11:43.494Z,25.35
2019-05-11T09:14:15.316Z,25.20
2019-05-11T09:16:48.863Z,24.79
2019-05-11T09:19:20.064Z,25.13
2019-05-11T09:21:51.871Z,24.91
2019-05-11T09:24:23.684Z,25.19
2019-05-11T09:26:55.388Z,23.83
2019-05-11T09:29:28.147Z,23.40
2019-05-11T09:32:00.269Z,22.33
2019-05-11T09:34:32.676Z,22.20
2019-05-11T09:37:04.850Z,22.13
2019-05-11T09:39:38.285Z,22.36
2019-05-11T09:42:10.747Z,21.94
2019-05-11T09:44:48.514Z,22.00
2019-05-11T09:47:20.273Z,22.27
2019-05-11T09:49:52.038Z,22.90
2019-05-11T09:52:23.585Z,24.02
2019-05-11T09:54:57.903Z,24.94
2019-05-11T09:57:28.923Z,25.38
2019-05-11T10:00:00.685Z,26.17
2019-05-11T10:02:34.278Z,26.20
2019-05-11T10:05:08.354Z,26.02
2019-05-11T10:07:40.296Z,25.75
2019-05-11T10:10:13.191Z,24.93
2019-05-11T10:12:44.591Z,24.57
2019-05-11T10:15:18.751Z,23.82
2019-05-11T10:17:49.912Z,23.07
2019-05-11T10:20:23.069Z,21.83
2019-05-11T10:22:54.806Z,21.06
2019-05-11T10:25:28.725Z,19.82
2019-05-11T10:28:00.586Z,19.21
2019-05-11T10:30:32.431Z,18.96
2019-05-11T10:33:04.189Z,18.98
2019-05-11T10:35:37.819Z,18.93
2019-05-11T10:38:09.543Z,18.88
2019-05-11T10:40:41.538Z,18.78
2019-05-11T10:43:12.955Z,18.64
2019-05-11T10:45:44.774Z,18.62
2019-05-11T10:48:17.763Z,18.85
2019-05-11T10:50:49.578Z,18.92
2019-05-11T10:53:21.539Z,19.11
2019-05-11T10:55:53.541Z,19.34
2019-05-11T10:58:25.246Z,19.16
2019-05-11T11:00:58.217Z,19.13
2019-05-11T11:03:30.131Z,19.05
2019-05-11T11:06:01.865Z,19.17
2019-05-11T11:08:33.621Z,19.30
2019-05-11T11:11:08.130Z,19.31
2019-05-11T11:13:40.096Z,19.31
2019-05-11T11:16:12.057Z,19.35
2019-05-11T11:18:43.822Z,19.45
2019-05-11T11:21:21.772Z,19.63
2019-05-11T11:23:49.222Z,19.75
2019-05-11T11:26:20.873Z,19.96
2019-05-11T11:28:52.727Z,20.28
2019-05-11T11:31:24.999Z,20.47
2019-05-11T11:33:59.933Z,20.61
2019-05-11T11:36:31.563Z,20.49
2019-05-11T11:39:03.815Z,20.70
2019-05-11T11:41:37.751Z,21.17
2019-05-11T11:44:09.392Z,21.63
2019-05-11T11:46:50.795Z,21.71
2019-05-11T11:49:13.712Z,21.94
2019-05-11T11:51:45.431Z,21.94
2019-05-11T11:54:18.173Z,22.40
2019-05-11T11:56:50.424Z,22.89
2019-05-11T11:59:22.088Z,23.05
2019-05-11T12:01:54.245Z,23.17
2019-05-11T12:04:28.263Z,22.92
2019-05-11T12:06:59.834Z,23.00
2019-05-11T12:09:31.978Z,23.27
2019-05-11T12:12:03.842Z,23.17
2019-05-11T12:14:38.334Z,23.14
2019-05-11T12:17:11.112Z,22.92
2019-05-11T12:19:43.062Z,22.53
2019-05-11T12:22:14.902Z,22.11
2019-05-11T12:24:48.194Z,22.11
2019-05-11T12:27:20.040Z,21.92
2019-05-11T12:29:51.761Z,21.28
2019-05-11T12:32:27.183Z,20.69
2019-05-11T12:34:58.977Z,20.62
2019-05-11T12:37:32.264Z,20.49
2019-05-11T12:40:05.239Z,19.87
2019-05-11T12:42:37.952Z,19.87
2019-05-11T12:45:10.177Z,19.55
2019-05-11T12:47:41.913Z,19.32
2019-05-11T12:50:13.714Z,18.98
2019-05-11T12:52:47.691Z,18.02
2019-05-11T12:55:19.297Z,17.22
2019-05-11T12:57:51.296Z,16.73
2019-05-11T13:00:23.160Z,16.56
2019-05-11T13:02:56.009Z,16.32
2019-05-11T13:05:28.839Z,15.82
2019-05-11T13:08:00.689Z,15.48
2019-05-11T13:10:32.550Z,15.36
2019-05-11T13:13:04.566Z,15.55
2019-05-11T13:15:38.754Z,15.93
2019-05-11T13:18:10.953Z,16.39
2019-05-11T13:20:42.705Z,16.86
2019-05-11T13:23:14.629Z,17.19
2019-05-11T13:25:48.114Z,17.51
2019-05-11T13:28:20.046Z,17.67
2019-05-11T13:30:51.480Z,17.83
2019-05-11T13:33:23.743Z,18.13
2019-05-11T13:35:54.915Z,18.56
2019-05-11T13:38:28.339Z,18.59
2019-05-11T13:41:00.341Z,18.55
2019-05-11T13:43:32.041Z,18.55
2019-05-11T13:46:03.859Z,18.56
2019-05-11T13:48:35.858Z,19.11
2019-05-11T13:51:08.847Z,19.39
2019-05-11T13:53:40.618Z,19.59
2019-05-11T13:56:12.285Z,19.59
2019-05-11T13:58:44.091Z,19.10
2019-05-11T14:01:18.187Z,18.61
2019-05-11T14:03:50.278Z,18.32
2019-05-11T14:06:22.219Z,17.80
2019-05-11T14:08:54.079Z,17.56
2019-05-11T14:11:28.504Z,17.41
2019-05-11T14:13:59.560Z,17.41
2019-05-11T14:16:31.824Z,17.49
2019-05-11T14:19:03.797Z,17.43
2019-05-11T14:21:37.793Z,17.45
2019-05-11T14:24:09.041Z,17.51
2019-05-11T14:26:40.794Z,17.58
2019-05-11T14:29:12.758Z,17.67
2019-05-11T14:31:44.560Z,17.56
2019-05-11T14:34:18.139Z,17.37
2019-05-11T14:36:50.532Z,17.24
2019-05-11T14:39:23.102Z,17.20
2019-05-11T14:41:54.961Z,17.03
2019-05-11T14:44:28.533Z,16.90
2019-05-11T14:47:02.650Z,17.02
2019-05-11T14:49:34.300Z,17.10
2019-05-11T14:52:08.336Z,16.99
2019-05-11T14:54:39.582Z,16.84
2019-05-11T14:57:11.550Z,16.94
2019-05-11T14:59:43.272Z,17.07
2019-05-11T15:02:33.280Z,16.97
2019-05-11T15:05:05.691Z,16.90
2019-05-11T15:07:38.528Z,16.92
2019-05-11T15:10:10.666Z,16.79
2019-05-11T15:12:43.689Z,16.73
2019-05-11T15:15:18.667Z,16.86
2019-05-11T15:17:50.364Z,16.92
2019-05-11T15:20:22.116Z,16.94
2019-05-11T15:22:53.867Z,16.91
2019-05-11T15:25:25.434Z,16.75
2019-05-11T15:27:58.408Z,16.65
2019-05-11T15:30:30.470Z,16.72
2019-05-11T15:33:02.185Z,16.78
2019-05-11T15:35:33.988Z,16.68
2019-05-11T15:38:08.543Z,16.40
2019-05-11T15:40:42.316Z,16.10
2019-05-11T15:43:14.127Z,15.82
2019-05-11T15:45:45.834Z,15.61
2019-05-11T15:48:18.663Z,15.52
2019-05-11T15:50:50.630Z,15.51
2019-05-11T15:53:22.572Z,15.60
2019-05-11T15:55:54.505Z,15.77
2019-05-11T15:58:29.043Z,15.79
2019-05-11T16:01:00.145Z,15.83
2019-05-11T16:03:32.953Z,15.95
2019-05-11T16:06:04.796Z,16.03
2019-05-11T16:08:37.650Z,16.06
2019-05-11T16:11:09.558Z,15.93
2019-05-11T16:13:41.105Z,15.80
2019-05-11T16:16:13.229Z,15.83
2019-05-11T16:18:44.826Z,15.87
2019-05-11T16:21:18.183Z,15.89
2019-05-11T16:23:49.887Z,15.93
2019-05-11T16:26:22.233Z,15.90
2019-05-11T16:28:53.916Z,15.95
2019-05-11T16:31:25.598Z,15.96
2019-05-11T16:33:58.945Z,15.89
2019-05-11T16:36:31.130Z,15.85
2019-05-11T16:39:04.713Z,15.77
2019-05-11T16:41:38.151Z,15.69
2019-05-11T16:44:10.107Z,15.63
2019-05-11T16:46:41.922Z,15.53
2019-05-11T16:49:24.035Z,15.44
2019-05-11T16:51:46.956Z,15.35
2019-05-11T16:54:18.785Z,15.26
2019-05-11T16:56:50.989Z,15.17
2019-05-11T16:59:22.989Z,15.04
2019-05-11T17:01:54.782Z,14.95
2019-05-11T17:04:29.224Z,14.86
2019-05-11T17:07:00.042Z,14.83
2019-05-11T17:09:31.995Z,14.78
2019-05-11T17:12:04.037Z,14.73
2019-05-11T17:14:37.226Z,14.69
2019-05-11T17:17:10.631Z,14.67
2019-05-11T17:19:46.221Z,14.62
2019-05-11T17:22:15.819Z,14.56
2019-05-11T17:24:48.438Z,14.52
2019-05-11T17:27:20.423Z,14.51
2019-05-11T17:29:52.600Z,14.51
2019-05-11T17:32:24.268Z,14.49
2019-05-11T17:34:58.117Z,14.47
2019-05-11T17:37:29.820Z,14.41
2019-05-11T17:40:02.023Z,14.37
2019-05-11T17:42:33.828Z,14.31
2019-05-11T17:45:08.812Z,14.25
2019-05-11T17:47:40.622Z,14.16
2019-05-11T17:50:12.535Z,14.09
2019-05-11T17:52:44.326Z,14.04
2019-05-11T17:55:18.301Z,13.98
2019-05-11T17:57:53.771Z,13.94
2019-05-11T18:00:23.816Z,13.89
2019-05-11T18:02:55.393Z,13.83
2019-05-11T18:05:27.558Z,13.76
2019-05-11T18:07:59.503Z,13.70
2019-05-11T18:10:31.623Z,13.64
2019-05-11T18:13:04.436Z,13.56
2019-05-11T18:15:38.036Z,13.49
2019-05-11T18:18:09.814Z,13.39
2019-05-11T18:20:41.980Z,13.36
2019-05-11T18:23:13.538Z,13.30
2019-05-11T18:25:47.941Z,13.25
2019-05-11T18:28:19.451Z,13.24
2019-05-11T18:30:51.411Z,13.28
2019-05-11T18:33:23.116Z,13.30
2019-05-11T18:35:54.935Z,13.30
2019-05-11T18:38:27.688Z,13.31
2019-05-11T18:41:00.060Z,13.30
2019-05-11T18:43:31.891Z,13.33
2019-05-11T18:46:03.915Z,13.30
2019-05-11T18:48:37.963Z,13.30
2019-05-11T18:51:09.193Z,13.23
2019-05-11T18:53:40.790Z,13.20
2019-05-11T18:56:12.622Z,13.15
2019-05-11T18:58:44.459Z,13.14
2019-05-11T19:01:17.862Z,13.12
2019-05-11T19:03:49.835Z,13.12
2019-05-11T19:06:21.779Z,13.10
2019-05-11T19:08:53.907Z,13.16
2019-05-11T19:11:28.715Z,13.21
2019-05-11T19:13:59.996Z,13.24
2019-05-11T19:16:31.867Z,13.27
2019-05-11T19:19:03.770Z,13.32
2019-05-11T19:21:36.043Z,13.34
2019-05-11T19:24:09.338Z,13.35
2019-05-11T19:26:41.343Z,13.38
2019-05-11T19:29:12.989Z,13.47
2019-05-11T19:31:44.914Z,13.52
2019-05-11T19:34:17.674Z,13.63
2019-05-11T19:36:50.113Z,13.74
2019-05-11T19:39:22.176Z,13.84
2019-05-11T19:41:54.131Z,13.91
2019-05-11T19:44:27.901Z,13.90
2019-05-11T19:46:59.499Z,13.94
2019-05-11T19:49:31.164Z,13.99
2019-05-11T19:52:03.022Z,13.98
2019-05-11T19:54:34.862Z,13.88
2019-05-11T19:57:08.376Z,13.83
2019-05-11T19:59:40.113Z,13.75
2019-05-11T20:02:12.067Z,13.66
2019-05-11T20:04:43.918Z,13.57
2019-05-11T20:07:18.341Z,13.52
2019-05-11T20:09:49.574Z,13.48
2019-05-11T20:12:21.746Z,13.47
2019-05-11T20:14:53.492Z,13.38
2019-05-11T20:17:25.386Z,13.21
2019-05-11T20:19:58.106Z,13.15
2019-05-11T20:22:30.647Z,13.05
2019-05-11T20:25:02.288Z,13.03
2019-05-11T20:27:34.268Z,13.00
2019-05-11T20:30:08.645Z,12.97
2019-05-11T20:32:40.741Z,12.92
2019-05-11T20:35:12.369Z,12.87
2019-05-11T20:37:44.235Z,12.79
2019-05-11T20:40:18.339Z,12.81
2019-05-11T20:42:49.806Z,12.76
2019-05-11T20:45:21.678Z,12.72
2019-05-11T20:47:53.674Z,12.75
2019-05-11T20:50:25.477Z,12.76
2019-05-11T20:52:58.323Z,12.70
2019-05-11T20:55:30.267Z,12.64
2019-05-11T20:58:02.230Z,12.64
2019-05-11T21:00:34.149Z,12.70
2019-05-11T21:03:08.007Z,12.75
2019-05-11T21:05:39.370Z,12.75
2019-05-11T21:08:11.315Z,12.77
2019-05-11T21:10:42.937Z,12.78
2019-05-11T21:13:14.940Z,12.79
2019-05-11T21:15:47.832Z,12.85
2019-05-11T21:18:19.831Z,12.90
2019-05-11T21:20:51.575Z,12.93
2019-05-11T21:23:23.873Z,12.95
2019-05-11T21:25:55.775Z,12.97
2019-05-11T21:28:30.341Z,12.99
2019-05-11T21:31:01.092Z,12.99
2019-05-11T21:33:33.275Z,12.82
2019-05-11T21:36:05.019Z,12.96
2019-05-11T21:38:38.629Z,12.90
2019-05-11T21:41:10.472Z,12.83
2019-05-11T21:43:42.543Z,12.84
2019-05-11T21:46:15.133Z,12.83
2019-05-11T21:48:47.872Z,12.88
2019-05-11T21:51:19.269Z,12.92
2019-05-11T21:53:51.000Z,12.94
2019-05-11T21:56:22.963Z,12.98
2019-05-11T21:58:54.847Z,13.02
2019-05-11T22:01:28.135Z,13.04
2019-05-11T22:04:00.156Z,13.05
2019-05-11T22:06:32.142Z,13.05
2019-05-11T22:09:05.437Z,13.06
2019-05-11T22:11:38.068Z,13.06
2019-05-11T22:14:10.027Z,13.08
2019-05-11T22:16:41.941Z,13.07
2019-05-11T22:19:14.311Z,13.02
2019-05-11T22:21:49.437Z,12.98
2019-05-11T22:24:19.910Z,12.92
2019-05-11T22:26:51.335Z,12.79
2019-05-11T22:29:22.824Z,12.61
2019-05-11T22:31:54.576Z,12.51
2019-05-11T22:34:28.420Z,12.41
2019-05-11T22:36:59.753Z,12.33
2019-05-11T22:39:31.851Z,12.27
2019-05-11T22:42:03.512Z,12.19
2019-05-11T22:44:36.551Z,12.11
2019-05-11T22:47:09.056Z,12.04
2019-05-11T22:49:40.996Z,11.98
2019-05-11T22:52:12.892Z,11.92
2019-05-11T22:54:44.864Z,11.86
2019-05-11T22:57:16.817Z,11.78
2019-05-11T22:59:48.580Z,11.75
2019-05-11T23:02:21.585Z,11.70
2019-05-11T23:04:53.218Z,11.66
2019-05-11T23:07:25.384Z,11.56
2019-05-11T23:10:00.463Z,11.48
2019-05-11T23:12:31.194Z,11.41
2019-05-11T23:15:08.076Z,11.35
2019-05-11T23:17:41.134Z,11.33
2019-05-11T23:20:12.988Z,11.29
2019-05-11T23:22:58.011Z,11.21
2019-05-11T23:25:23.770Z,11.13
2019-05-11T23:27:55.952Z,11.07
2019-05-11T23:30:28.162Z,11.03
2019-05-11T23:32:59.964Z,11.03
2019-05-11T23:35:31.618Z,11.04
2019-05-11T23:38:03.891Z,11.05
2019-05-11T23:40:37.869Z,11.07
2019-05-11T23:43:09.559Z,11.04
2019-05-11T23:45:41.314Z,11.03
2019-05-11T23:48:13.174Z,11.00
2019-05-11T23:50:44.936Z,10.96
2019-05-11T23:53:17.823Z,10.95
2019-05-11T23:55:49.804Z,10.97
2019-05-11T23:58:21.696Z,10.98
